Time;durP1;ratioP1;P1;durP2;ratioP2;P2;SDS_P1;SDS_P2;PMS_P1;PMS_P2;Temp;Humidity;BMP_temperature;BMP_pressure;BME280_temperature;BME280_humidity;BME280_pressure;Samples;Min_cycle;Max_cycle;Signal;HPM_P1;HPM_P2
2021/04/28 00:00:22;;;;;;;19.73;12.27;;;2.20;56.20;;;;;;5050712;28;20116;-73
2021/04/28 00:02:48;;;;;;;17.33;11.27;;;2.20;56.20;;;;;;5050777;28;20120;-73
2021/04/28 00:05:14;;;;;;;16.45;11.23;;;2.20;56.30;;;;;;5052164;28;20096;-74
2021/04/28 00:07:40;;;;;;;20.88;11.48;;;2.20;56.40;;;;;;5051914;28;20117;-73
2021/04/28 00:10:09;;;;;;;17.50;11.57;;;2.10;56.50;;;;;;5052056;28;20528;-73
2021/04/28 00:12:35;;;;;;;19.27;10.88;;;2.10;56.70;;;;;;5050508;28;20017;-74
2021/04/28 00:15:01;;;;;;;17.13;10.57;;;2.00;56.70;;;;;;5052011;28;20017;-74
2021/04/28 00:17:27;;;;;;;21.85;12.07;;;2.00;56.60;;;;;;5051883;28;20479;-73
2021/04/28 00:19:53;;;;;;;16.30;10.55;;;2.00;56.70;;;;;;5051825;28;20048;-73
2021/04/28 00:22:19;;;;;;;18.88;10.90;;;2.00;56.80;;;;;;5051670;28;20112;-73
2021/04/28 00:24:44;;;;;;;20.00;11.45;;;2.00;56.70;;;;;;5051927;28;20510;-74
2021/04/28 00:27:10;;;;;;;14.30;10.43;;;2.00;56.70;;;;;;5052138;28;20053;-73
2021/04/28 00:29:36;;;;;;;19.75;10.48;;;2.00;56.90;;;;;;5055350;28;20092;-73
2021/04/28 00:32:01;;;;;;;21.35;12.23;;;1.90;57.00;;;;;;5055253;28;20017;-73
2021/04/28 00:34:27;;;;;;;20.15;11.57;;;1.90;57.20;;;;;;5054145;28;20025;-73
2021/04/28 00:36:53;;;;;;;16.50;11.15;;;1.90;57.20;;;;;;5055338;28;20028;-73
2021/04/28 00:39:18;;;;;;;18.35;10.98;;;1.80;57.30;;;;;;5055148;28;20039;-73
2021/04/28 00:41:44;;;;;;;18.92;11.77;;;1.80;57.50;;;;;;5053982;28;20528;-73
2021/04/28 00:44:10;;;;;;;18.77;9.98;;;1.70;57.70;;;;;;5053727;28;20025;-73
2021/04/28 00:46:37;;;;;;;22.45;11.75;;;1.70;58.00;;;;;;5053724;28;20017;-73
2021/04/28 00:49:03;;;;;;;21.27;11.70;;;1.70;58.10;;;;;;5053711;28;20070;-73
2021/04/28 00:51:28;;;;;;;17.92;11.45;;;1.60;58.20;;;;;;5054978;28;20475;-74
2021/04/28 00:53:54;;;;;;;21.13;11.43;;;1.60;58.40;;;;;;5054967;28;20021;-73
2021/04/28 00:56:20;;;;;;;21.67;11.38;;;1.60;58.60;;;;;;5053488;28;20078;-73
2021/04/28 00:58:46;;;;;;;19.38;11.63;;;1.50;58.60;;;;;;5054937;28;20163;-73
2021/04/28 01:01:12;;;;;;;20.58;11.13;;;1.50;58.60;;;;;;5053362;28;20120;-74
2021/04/28 01:03:38;;;;;;;20.50;11.15;;;1.50;59.30;;;;;;5053543;28;20029;-73
2021/04/28 01:06:06;;;;;;;18.77;10.40;;;1.50;58.60;;;;;;5053466;28;20025;-74
2021/04/28 01:08:33;;;;;;;15.70;9.60;;;1.50;58.50;;;;;;5054572;28;20029;-73
2021/04/28 01:10:59;;;;;;;19.85;10.43;;;1.50;58.30;;;;;;5054628;28;20100;-74
2021/04/28 01:13:25;;;;;;;20.63;10.18;;;1.50;58.40;;;;;;5054659;28;20106;-73
2021/04/28 01:15:53;;;;;;;20.25;11.63;;;1.50;58.50;;;;;;5053200;28;20479;-74
2021/04/28 01:18:20;;;;;;;19.90;11.18;;;1.40;58.60;;;;;;5053196;28;20031;-73
2021/04/28 01:20:47;;;;;;;17.35;11.02;;;1.40;58.70;;;;;;5053023;28;20029;-73
2021/04/28 01:23:15;;;;;;;19.90;11.13;;;1.40;59.00;;;;;;5054397;28;20389;-73
2021/04/28 01:25:41;;;;;;;21.77;10.98;;;1.30;59.00;;;;;;5053180;28;20013;-74
2021/04/28 01:28:09;;;;;;;20.70;10.02;;;1.30;59.10;;;;;;5054358;28;20450;-73
2021/04/28 01:30:59;;;;;;;17.65;11.43;;;1.20;59.20;;;;;;5054327;28;20065;-74
2021/04/28 01:33:34;;;;;;;18.42;10.23;;;1.20;59.50;;;;;;5054170;28;20111;-73
2021/04/28 01:36:01;;;;;;;16.98;10.57;;;1.10;59.50;;;;;;5054407;28;20482;-74
2021/04/28 01:38:32;;;;;;;19.63;11.63;;;1.10;59.80;;;;;;5053396;28;20021;-73
2021/04/28 01:40:58;;;;;;;17.27;11.75;;;1.10;59.70;;;;;;5054189;28;20037;-73
2021/04/28 01:43:24;;;;;;;16.80;9.70;;;1.10;59.80;;;;;;5054129;28;20082;-73
2021/04/28 01:45:51;;;;;;;16.00;10.13;;;1.00;60.20;;;;;;5054098;28;20028;-74
2021/04/28 01:48:17;;;;;;;17.33;10.30;;;1.00;60.40;;;;;;5053914;28;20029;-73
2021/04/28 01:50:48;;;;;;;19.98;12.43;;;1.00;60.00;;;;;;5053902;28;20020;-74
2021/04/28 01:53:17;;;;;;;17.95;10.63;;;1.00;60.40;;;;;;5052385;28;20119;-73
2021/04/28 01:55:44;;;;;;;18.00;11.73;;;0.90;60.70;;;;;;5055038;28;20387;-73
2021/04/28 01:58:11;;;;;;;18.17;10.48;;;0.90;60.90;;;;;;5053571;28;20059;-73
2021/04/28 02:00:37;;;;;;;17.92;10.30;;;0.90;61.00;;;;;;5069310;28;20037;-73
2021/04/28 02:03:03;;;;;;;19.52;11.13;;;0.90;60.90;;;;;;5053511;28;20017;-73
2021/04/28 02:05:29;;;;;;;18.95;10.00;;;0.80;61.00;;;;;;5052239;28;20037;-73
2021/04/28 02:07:54;;;;;;;20.27;11.18;;;0.80;61.20;;;;;;5067735;28;20409;-73
2021/04/28 02:10:20;;;;;;;20.75;11.05;;;0.80;61.40;;;;;;5073243;28;20021;-74
2021/04/28 02:12:48;;;;;;;16.83;11.35;;;0.80;61.20;;;;;;5073309;28;20020;-73
2021/04/28 02:15:16;;;;;;;17.95;11.00;;;0.80;61.30;;;;;;5072052;28;20017;-73
2021/04/28 02:17:43;;;;;;;17.65;11.27;;;0.80;61.60;;;;;;5072031;28;20040;-73
2021/04/28 02:20:14;;;;;;;16.85;10.43;;;0.80;61.60;;;;;;5073336;28;20413;-73
2021/04/28 02:22:41;;;;;;;18.10;10.80;;;0.80;61.60;;;;;;5073254;28;20103;-73
2021/04/28 02:25:09;;;;;;;17.40;10.82;;;0.70;61.80;;;;;;5071921;28;20142;-74
2021/04/28 02:27:36;;;;;;;16.95;10.77;;;0.70;62.20;;;;;;5072153;28;20094;-73
2021/04/28 02:30:05;;;;;;;18.85;10.40;;;0.70;62.40;;;;;;5073122;28;20020;-74
2021/04/28 02:32:31;;;;;;;17.73;11.35;;;0.60;62.50;;;;;;5073025;28;20025;-73
2021/04/28 02:34:56;;;;;;;19.05;10.88;;;0.60;62.60;;;;;;5072987;28;20034;-74
2021/04/28 02:37:26;;;;;;;16.23;11.38;;;0.50;63.00;;;;;;5072973;28;20031;-73
2021/04/28 02:39:59;;;;;;;16.63;11.20;;;0.50;63.00;;;;;;5072960;28;20115;-73
2021/04/28 02:42:25;;;;;;;20.40;10.82;;;0.50;63.20;;;;;;5073148;28;20470;-73
2021/04/28 02:44:52;;;;;;;18.20;12.63;;;0.40;63.10;;;;;;5072720;28;20055;-74
2021/04/28 02:47:18;;;;;;;20.70;11.02;;;0.40;63.30;;;;;;5071531;28;20123;-73
2021/04/28 02:49:45;;;;;;;15.68;11.00;;;0.30;63.50;;;;;;5072206;28;20108;-73
2021/04/28 02:52:11;;;;;;;17.77;11.18;;;0.30;63.80;;;;;;5072662;28;20035;-73
2021/04/28 02:54:38;;;;;;;22.05;12.50;;;0.30;64.10;;;;;;5073030;28;20021;-74
2021/04/28 02:57:05;;;;;;;19.73;11.90;;;0.30;64.40;;;;;;5072713;28;20020;-73
2021/04/28 02:59:31;;;;;;;24.90;13.27;;;0.30;64.30;;;;;;5072760;28;20083;-73
2021/04/28 03:01:57;;;;;;;18.13;11.80;;;0.20;64.40;;;;;;5071457;28;20013;-72
2021/04/28 03:04:24;;;;;;;15.77;12.38;;;0.20;64.50;;;;;;5071562;28;20496;-73
2021/04/28 03:06:49;;;;;;;20.05;13.25;;;0.20;64.50;;;;;;5072747;28;20074;-72
2021/04/28 03:09:15;;;;;;;21.67;12.35;;;0.30;64.70;;;;;;5072623;28;20053;-74
2021/04/28 03:11:43;;;;;;;23.45;12.65;;;0.20;64.70;;;;;;5071294;28;20070;-73
2021/04/28 03:14:09;;;;;;;22.52;12.32;;;0.20;64.70;;;;;;5072617;28;20016;-73
2021/04/28 03:16:35;;;;;;;19.98;11.20;;;0.10;65.00;;;;;;5072479;28;20358;-73
2021/04/28 03:19:06;;;;;;;23.17;12.02;;;0.10;65.50;;;;;;5071261;28;20042;-73
2021/04/28 03:21:40;;;;;;;23.15;11.95;;;0.00;65.30;;;;;;5072603;28;20017;-72
2021/04/28 03:24:06;;;;;;;19.75;10.90;;;0.00;65.70;;;;;;5071508;28;20070;-73
2021/04/28 03:26:32;;;;;;;14.93;10.05;;;0.00;66.10;;;;;;5071337;28;20028;-73
2021/04/28 03:28:58;;;;;;;21.42;12.02;;;-0.10;66.00;;;;;;5072193;28;20406;-73
2021/04/28 03:31:24;;;;;;;21.35;12.15;;;0.00;66.30;;;;;;5072469;28;20040;-73
2021/04/28 03:33:49;;;;;;;23.88;11.90;;;0.00;66.10;;;;;;5071210;28;20413;-73
2021/04/28 03:36:15;;;;;;;19.05;11.30;;;0.00;66.00;;;;;;5072402;28;20027;-73
2021/04/28 03:38:41;;;;;;;17.50;11.45;;;0.00;66.00;;;;;;5065912;28;20386;-73
2021/04/28 03:41:07;;;;;;;19.83;11.88;;;0.10;65.90;;;;;;5050986;28;20108;-73
2021/04/28 03:43:33;;;;;;;24.48;11.15;;;0.10;66.50;;;;;;5050898;28;20056;-73
2021/04/28 03:45:58;;;;;;;19.10;10.55;;;0.10;65.70;;;;;;5052113;28;20025;-73
2021/04/28 03:48:24;;;;;;;13.48;9.60;;;0.10;65.60;;;;;;5052189;28;20025;-73
2021/04/28 03:50:50;;;;;;;19.80;11.90;;;0.10;65.10;;;;;;5052282;28;20360;-74
2021/04/28 03:53:15;;;;;;;20.92;12.13;;;0.20;65.50;;;;;;5050784;28;20486;-73
2021/04/28 03:55:41;;;;;;;19.40;12.15;;;0.20;66.00;;;;;;5051033;28;20391;-74
2021/04/28 03:58:07;;;;;;;22.08;12.68;;;0.30;65.60;;;;;;5052021;28;20037;-73
2021/04/28 04:00:33;;;;;;;23.67;12.02;;;0.40;64.80;;;;;;5052828;28;20029;-73
2021/04/28 04:02:58;;;;;;;17.60;11.63;;;0.50;64.60;;;;;;5054589;28;20018;-73
2021/04/28 04:05:24;;;;;;;18.85;11.45;;;0.70;64.20;;;;;;5055881;28;20059;-74
2021/04/28 04:07:51;;;;;;;16.75;10.93;;;0.80;63.50;;;;;;5054676;28;20025;-73
2021/04/28 04:10:17;;;;;;;20.38;12.02;;;0.90;63.30;;;;;;5055764;28;20536;-74
2021/04/28 04:12:42;;;;;;;17.95;10.45;;;1.10;62.90;;;;;;5055550;28;20079;-73
2021/04/28 04:15:09;;;;;;;20.30;11.10;;;1.20;62.70;;;;;;5055678;28;20478;-74
2021/04/28 04:17:35;;;;;;;27.15;12.70;;;1.30;62.30;;;;;;5054069;28;20478;-73
2021/04/28 04:20:02;;;;;;;27.10;13.10;;;1.30;62.10;;;;;;5055550;28;20037;-74
2021/04/28 04:22:27;;;;;;;19.17;13.18;;;1.40;62.10;;;;;;5055574;28;20051;-73
2021/04/28 04:24:53;;;;;;;19.92;12.00;;;1.50;61.90;;;;;;5055485;28;20135;-73
2021/04/28 04:27:19;;;;;;;19.23;11.95;;;1.70;61.30;;;;;;5055452;28;20025;-73
2021/04/28 04:29:45;;;;;;;20.60;12.85;;;1.70;62.40;;;;;;5065111;28;20038;-73
2021/04/28 04:32:11;;;;;;;20.50;12.75;;;1.90;61.30;;;;;;5074009;28;20036;-73
2021/04/28 04:34:36;;;;;;;18.73;11.73;;;2.00;60.50;;;;;;5074290;28;20016;-74
2021/04/28 04:37:03;;;;;;;17.45;11.80;;;2.10;59.60;;;;;;5074896;28;20474;-73
2021/04/28 04:39:29;;;;;;;16.85;10.23;;;2.30;59.30;;;;;;5073828;28;20032;-73
2021/04/28 04:41:55;;;;;;;22.40;11.43;;;2.40;58.80;;;;;;5075065;28;20020;-73
2021/04/28 04:44:20;;;;;;;18.92;10.18;;;2.50;58.40;;;;;;5069624;28;20021;-74
2021/04/28 04:46:46;;;;;;;21.05;11.27;;;2.50;58.10;;;;;;5074474;28;20489;-73
2021/04/28 04:49:12;;;;;;;17.60;10.05;;;2.60;57.50;;;;;;5073228;28;20028;-74
2021/04/28 04:51:37;;;;;;;18.77;11.40;;;2.70;57.50;;;;;;5072909;28;20029;-73
2021/04/28 04:54:03;;;;;;;18.35;10.65;;;2.80;57.30;;;;;;5074350;28;20474;-74
2021/04/28 04:56:29;;;;;;;19.05;10.43;;;2.90;56.80;;;;;;5062362;28;20064;-73
2021/04/28 04:58:55;;;;;;;21.25;10.50;;;3.00;56.60;;;;;;5053525;28;20076;-73
2021/04/28 05:01:20;;;;;;;14.18;9.55;;;3.10;56.20;;;;;;5054730;28;20029;-74
2021/04/28 05:03:46;;;;;;;19.08;10.55;;;3.20;56.10;;;;;;5054717;28;20021;-73
2021/04/28 05:06:12;;;;;;;17.80;10.18;;;3.30;56.10;;;;;;5055168;28;20471;-72
2021/04/28 05:08:37;;;;;;;19.27;11.07;;;3.40;55.70;;;;;;5052699;28;20274;-73
2021/04/28 05:11:03;;;;;;;18.27;11.48;;;3.40;55.40;;;;;;5056627;28;20029;-74
2021/04/28 05:13:29;;;;;;;15.27;9.82;;;3.50;55.20;;;;;;5062049;28;20040;-73
2021/04/28 05:15:54;;;;;;;14.32;9.70;;;3.70;55.00;;;;;;5058510;28;20021;-74
2021/04/28 05:18:20;;;;;;;16.27;9.13;;;3.80;54.70;;;;;;5062229;28;20275;-73
2021/04/28 05:20:46;;;;;;;15.40;9.50;;;3.90;54.50;;;;;;5064724;28;20057;-72
2021/04/28 05:23:11;;;;;;;15.75;9.60;;;4.00;53.80;;;;;;5067630;28;20448;-73
2021/04/28 05:25:37;;;;;;;13.90;8.70;;;4.10;53.90;;;;;;5072139;28;20371;-73
2021/04/28 05:28:03;;;;;;;14.88;9.13;;;4.20;53.60;;;;;;5070457;28;20048;-73
2021/04/28 05:30:29;;;;;;;13.38;8.52;;;4.40;53.50;;;;;;5061384;28;20025;-74
2021/04/28 05:32:55;;;;;;;14.00;9.68;;;4.50;52.80;;;;;;5061127;28;20029;-74
2021/04/28 05:35:21;;;;;;;16.65;10.02;;;4.60;52.50;;;;;;5055225;28;20498;-74
2021/04/28 05:37:47;;;;;;;15.73;8.52;;;4.70;52.40;;;;;;5054041;28;20052;-73
2021/04/28 05:40:14;;;;;;;17.80;9.82;;;4.80;52.10;;;;;;5061044;28;20033;-74
2021/04/28 05:42:40;;;;;;;14.05;8.98;;;5.00;51.90;;;;;;5061598;28;20078;-72
2021/04/28 05:45:08;;;;;;;51.15;13.57;;;5.20;52.00;;;;;;5072302;28;20024;-73
2021/04/28 05:47:34;;;;;;;18.50;9.52;;;5.40;51.80;;;;;;5072005;28;20020;-73
2021/04/28 05:50:00;;;;;;;23.55;9.20;;;5.60;52.10;;;;;;5061799;28;20025;-73
2021/04/28 05:52:25;;;;;;;11.15;7.32;;;5.70;51.00;;;;;;5066191;28;20031;-73
2021/04/28 05:54:51;;;;;;;13.23;8.32;;;5.90;50.90;;;;;;5071264;28;20020;-74
2021/04/28 05:57:17;;;;;;;12.32;7.97;;;6.00;50.00;;;;;;5072132;28;20447;-73
2021/04/28 05:59:44;;;;;;;15.45;8.82;;;6.20;49.40;;;;;;5072448;28;20050;-72
2021/04/28 06:02:13;;;;;;;11.10;7.68;;;6.30;49.10;;;;;;5073612;28;20021;-73
2021/04/28 06:04:39;;;;;;;14.45;7.72;;;6.40;48.60;;;;;;5060466;28;20036;-73
2021/04/28 06:07:05;;;;;;;10.23;8.00;;;6.50;48.40;;;;;;5060972;28;20021;-73
2021/04/28 06:09:31;;;;;;;14.02;9.15;;;6.70;48.40;;;;;;5060915;28;20032;-74
2021/04/28 06:11:56;;;;;;;12.85;7.38;;;6.80;48.10;;;;;;5056365;28;20100;-72
2021/04/28 06:14:22;;;;;;;14.20;7.63;;;6.90;47.60;;;;;;5051984;28;20094;-75
2021/04/28 06:16:48;;;;;;;23.90;8.90;;;7.00;47.70;;;;;;5051035;28;20383;-74
2021/04/28 06:19:14;;;;;;;11.88;6.57;;;7.20;47.20;;;;;;5067962;28;20044;-74
2021/04/28 06:21:40;;;;;;;13.90;7.70;;;7.30;46.10;;;;;;5071110;28;20082;-74
2021/04/28 06:24:07;;;;;;;13.60;8.00;;;7.40;46.20;;;;;;5072856;28;20095;-74
2021/04/28 06:26:33;;;;;;;19.52;7.35;;;7.50;45.50;;;;;;5071669;28;20020;-73
2021/04/28 06:28:59;;;;;;;12.25;7.20;;;7.60;45.20;;;;;;5072692;28;20025;-74
2021/04/28 06:31:25;;;;;;;12.18;7.10;;;7.60;44.50;;;;;;5071593;28;20028;-74
2021/04/28 06:33:51;;;;;;;11.15;6.63;;;7.70;44.30;;;;;;5071387;28;20098;-74
2021/04/28 06:36:18;;;;;;;8.90;6.38;;;7.70;44.20;;;;;;5069357;28;20036;-73
2021/04/28 06:38:44;;;;;;;15.10;6.63;;;7.80;43.90;;;;;;5072501;28;20107;-74
2021/04/28 06:41:09;;;;;;;9.75;7.97;;;8.00;44.10;;;;;;5072652;28;20494;-75
2021/04/28 06:43:35;;;;;;;11.70;6.78;;;8.10;43.90;;;;;;5072494;28;20115;-74
2021/04/28 06:46:01;;;;;;;11.90;7.05;;;8.20;43.60;;;;;;5064543;28;20023;-74
2021/04/28 06:48:27;;;;;;;13.05;7.47;;;8.30;43.80;;;;;;5060786;28;20020;-74
2021/04/28 06:50:53;;;;;;;12.20;6.85;;;8.50;43.50;;;;;;5060966;28;20577;-74
2021/04/28 06:53:21;;;;;;;10.40;6.20;;;8.70;43.40;;;;;;5060423;28;20028;-74
2021/04/28 06:55:47;;;;;;;12.55;6.32;;;8.80;42.60;;;;;;5060649;28;20032;-74
2021/04/28 06:58:13;;;;;;;12.25;7.22;;;8.90;41.90;;;;;;5062897;28;20474;-74
2021/04/28 07:00:39;;;;;;;10.60;6.25;;;9.00;41.80;;;;;;5072484;28;20033;-73
2021/04/28 07:03:05;;;;;;;9.27;6.30;;;9.00;41.70;;;;;;5072455;28;20024;-74
2021/04/28 07:05:30;;;;;;;8.93;6.35;;;9.00;41.40;;;;;;5062756;28;20039;-74
2021/04/28 07:07:56;;;;;;;11.65;6.75;;;9.10;41.50;;;;;;5050420;28;20395;-74
2021/04/28 07:10:22;;;;;;;8.93;6.13;;;9.30;42.20;;;;;;5049939;28;20059;-75
2021/04/28 07:12:51;;;;;;;10.27;6.13;;;9.50;41.80;;;;;;5050263;28;20437;-73
2021/04/28 07:15:17;;;;;;;16.35;8.55;;;9.60;41.40;;;;;;5051312;28;20482;-73
2021/04/28 07:17:47;;;;;;;7.95;5.60;;;9.70;41.10;;;;;;5051475;28;20017;-74
2021/04/28 07:20:13;;;;;;;9.50;5.75;;;9.80;40.80;;;;;;5049553;28;20036;-74
2021/04/28 07:22:39;;;;;;;11.60;7.35;;;9.90;40.50;;;;;;5051827;28;20104;-74
2021/04/28 07:25:06;;;;;;;11.27;6.80;;;10.00;40.20;;;;;;5052272;28;20119;-75
2021/04/28 07:27:31;;;;;;;10.40;5.90;;;10.10;40.40;;;;;;5050982;28;20478;-74
2021/04/28 07:29:57;;;;;;;10.85;6.38;;;10.10;40.30;;;;;;5052245;28;20025;-75
2021/04/28 07:32:24;;;;;;;14.15;7.30;;;10.10;40.20;;;;;;5052222;28;20028;-73
2021/04/28 07:34:49;;;;;;;8.25;6.32;;;10.30;40.30;;;;;;5051946;28;20025;-74
2021/04/28 07:37:15;;;;;;;9.15;6.75;;;10.30;40.20;;;;;;5054602;28;20063;-74
2021/04/28 07:39:41;;;;;;;9.80;6.80;;;10.40;39.90;;;;;;5056268;28;20086;-74
2021/04/28 07:42:07;;;;;;;10.80;6.90;;;10.60;39.70;;;;;;5054894;28;20017;-73
2021/04/28 07:44:33;;;;;;;9.40;6.00;;;10.70;39.80;;;;;;5056063;28;20097;-74
2021/04/28 07:47:00;;;;;;;10.68;6.43;;;10.80;39.50;;;;;;5056006;28;20455;-73
2021/04/28 07:49:26;;;;;;;7.75;6.07;;;10.90;39.50;;;;;;5054414;28;20029;-74
2021/04/28 07:51:52;;;;;;;9.55;6.43;;;11.00;39.20;;;;;;5055827;28;20052;-74
2021/04/28 07:54:19;;;;;;;14.55;6.57;;;11.00;39.10;;;;;;5055964;28;20052;-73
2021/04/28 07:56:45;;;;;;;11.70;6.85;;;11.10;39.20;;;;;;5054418;28;20457;-74
2021/04/28 07:59:11;;;;;;;10.05;7.35;;;11.20;39.10;;;;;;5054533;28;20135;-73
2021/04/28 08:01:37;;;;;;;7.97;6.05;;;11.30;39.20;;;;;;5054254;28;20017;-74
2021/04/28 08:04:03;;;;;;;10.38;7.03;;;11.40;39.10;;;;;;5054102;28;20028;-74
2021/04/28 08:06:29;;;;;;;11.77;6.15;;;11.50;39.00;;;;;;5055541;28;20059;-74
2021/04/28 08:08:54;;;;;;;11.18;5.97;;;11.60;39.10;;;;;;5054086;28;20017;-74
2021/04/28 08:11:20;;;;;;;8.57;6.20;;;11.70;39.20;;;;;;5054578;28;20509;-74
2021/04/28 08:13:49;;;;;;;7.95;5.80;;;11.80;38.80;;;;;;5055548;28;20039;-74
2021/04/28 08:16:15;;;;;;;8.35;5.53;;;11.60;38.50;;;;;;5054187;28;20066;-74
2021/04/28 08:18:41;;;;;;;9.80;6.30;;;11.50;38.30;;;;;;5053839;28;20449;-74
2021/04/28 08:21:07;;;;;;;9.52;6.10;;;11.60;39.50;;;;;;5061892;28;20027;-74
2021/04/28 08:23:33;;;;;;;11.13;6.50;;;11.70;38.80;;;;;;5072114;28;20024;-74
2021/04/28 08:26:04;;;;;;;11.50;6.80;;;12.00;39.20;;;;;;5074597;28;20021;-75
2021/04/28 08:28:30;;;;;;;7.95;5.53;;;12.00;38.60;;;;;;5074760;28;20020;-72
2021/04/28 08:30:56;;;;;;;6.93;6.18;;;12.00;38.50;;;;;;5073315;28;20532;-73
2021/04/28 08:33:21;;;;;;;8.18;5.45;;;11.90;37.90;;;;;;5073751;28;20074;-72
2021/04/28 08:35:47;;;;;;;9.70;5.57;;;12.00;38.20;;;;;;5073902;28;20029;-72
2021/04/28 08:38:13;;;;;;;8.05;5.47;;;12.10;38.40;;;;;;5074893;28;20032;-72
2021/04/28 08:40:39;;;;;;;10.82;6.35;;;12.20;37.80;;;;;;5074959;28;20036;-72
2021/04/28 08:43:05;;;;;;;8.93;7.00;;;12.30;37.90;;;;;;5073516;28;20024;-72
2021/04/28 08:45:32;;;;;;;11.23;5.63;;;12.50;38.40;;;;;;5074438;28;20028;-73
2021/04/28 08:47:58;;;;;;;9.05;5.70;;;12.60;38.20;;;;;;5073297;28;20040;-72
2021/04/28 08:50:24;;;;;;;7.28;5.32;;;12.60;37.60;;;;;;5074938;28;20024;-73
2021/04/28 08:52:52;;;;;;;11.32;6.47;;;12.50;37.50;;;;;;5074803;28;20036;-71
2021/04/28 08:55:19;;;;;;;14.73;6.38;;;12.50;37.70;;;;;;5074838;28;20024;-72
2021/04/28 08:57:45;;;;;;;10.07;6.35;;;12.40;37.60;;;;;;5073437;28;21297;-72
2021/04/28 09:00:12;;;;;;;11.23;6.32;;;12.30;37.90;;;;;;5074810;28;20409;-72
2021/04/28 09:02:54;;;;;;;12.20;7.90;;;12.30;37.90;;;;;;5074175;28;20028;-73
2021/04/28 09:05:20;;;;;;;10.80;6.38;;;12.30;38.40;;;;;;5073762;28;20048;-73
2021/04/28 09:07:46;;;;;;;9.45;5.93;;;12.60;38.90;;;;;;5074478;28;20394;-73
2021/04/28 09:10:14;;;;;;;9.63;6.20;;;12.50;38.20;;;;;;5074414;28;20028;-73
2021/04/28 09:12:49;;;;;;;8.70;6.60;;;12.60;38.40;;;;;;5073205;28;20020;-72
2021/04/28 09:15:14;;;;;;;6.28;5.65;;;12.70;37.90;;;;;;5074314;28;20025;-72
2021/04/28 09:17:53;;;;;;;12.15;6.53;;;12.70;37.70;;;;;;5074169;28;20021;-72
2021/04/28 09:20:35;;;;;;;8.65;6.30;;;12.70;37.70;;;;;;5073138;28;20128;-72
2021/04/28 09:23:02;;;;;;;8.63;5.93;;;12.80;37.50;;;;;;5073745;28;20129;-72
2021/04/28 09:25:40;;;;;;;8.27;5.72;;;12.90;37.60;;;;;;5074019;28;20029;-73
2021/04/28 09:28:32;;;;;;;8.50;5.78;;;12.90;37.10;;;;;;5073819;28;20024;-72
2021/04/28 09:31:09;;;;;;;8.82;5.82;;;13.00;37.30;;;;;;5072623;28;20024;-72
2021/04/28 09:33:41;;;;;;;8.00;6.07;;;13.10;37.20;;;;;;5073163;28;20017;-72
2021/04/28 09:36:12;;;;;;;9.45;4.95;;;13.20;36.90;;;;;;5073841;28;20074;-73
2021/04/28 09:38:57;;;;;;;6.28;4.65;;;13.10;36.80;;;;;;5073759;28;20461;-72
2021/04/28 09:41:34;;;;;;;8.05;6.05;;;13.30;37.10;;;;;;5071936;28;20029;-72
2021/04/28 09:44:01;;;;;;;9.60;5.50;;;13.20;36.40;;;;;;5070392;28;20020;-72
2021/04/28 09:46:27;;;;;;;14.93;6.35;;;13.30;36.20;;;;;;5073840;28;20037;-72
2021/04/28 09:49:06;;;;;;;8.90;5.45;;;13.30;36.60;;;;;;5073467;28;20039;-72
2021/04/28 09:51:34;;;;;;;6.70;4.85;;;13.30;36.10;;;;;;5072168;28;20132;-72
2021/04/28 09:54:10;;;;;;;14.43;5.53;;;13.40;36.40;;;;;;5073736;28;20024;-72
2021/04/28 09:56:40;;;;;;;7.35;5.57;;;13.30;36.10;;;;;;5073632;28;20024;-72
2021/04/28 09:59:06;;;;;;;9.35;5.32;;;13.20;35.70;;;;;;5071752;28;20068;-72
2021/04/28 10:01:39;;;;;;;9.35;5.55;;;13.30;36.20;;;;;;5073197;28;20661;-73
2021/04/28 10:04:08;;;;;;;8.50;5.32;;;13.30;36.40;;;;;;5073451;28;20020;-72
2021/04/28 10:06:44;;;;;;;10.15;5.30;;;13.50;36.40;;;;;;5072001;28;20016;-72
2021/04/28 10:09:28;;;;;;;6.47;4.97;;;13.50;35.90;;;;;;5073322;28;20436;-73
2021/04/28 10:11:54;;;;;;;39.35;8.82;;;13.40;35.50;;;;;;5071577;28;20036;-72
2021/04/28 10:14:20;;;;;;;7.57;5.68;;;13.50;35.50;;;;;;5073183;28;20025;-72
2021/04/28 10:16:48;;;;;;;12.07;5.47;;;13.40;35.40;;;;;;5071786;28;20394;-72
2021/04/28 10:19:16;;;;;;;9.68;6.13;;;13.50;35.50;;;;;;5072989;28;20120;-72
2021/04/28 10:21:43;;;;;;;9.73;5.05;;;13.70;35.60;;;;;;5072124;28;20033;-72
2021/04/28 10:24:10;;;;;;;10.75;6.38;;;13.70;35.40;;;;;;5072929;28;20519;-72
2021/04/28 10:26:37;;;;;;;8.45;5.70;;;13.70;35.30;;;;;;5068904;28;20453;-72
2021/04/28 10:29:03;;;;;;;10.27;6.82;;;13.80;35.30;;;;;;5072399;28;20086;-73
2021/04/28 10:31:30;;;;;;;8.18;5.53;;;14.00;35.70;;;;;;5072101;28;20474;-74
2021/04/28 10:33:57;;;;;;;11.48;6.28;;;14.00;35.60;;;;;;5071970;28;20021;-72
2021/04/28 10:36:24;;;;;;;7.90;5.80;;;14.00;34.60;;;;;;5071547;28;20066;-72
2021/04/28 10:38:51;;;;;;;8.52;5.35;;;14.00;34.70;;;;;;5072603;28;20025;-72
2021/04/28 10:41:35;;;;;;;7.25;5.70;;;14.00;34.70;;;;;;5072600;28;20103;-72
2021/04/28 10:44:01;;;;;;;11.25;5.18;;;14.00;34.70;;;;;;5072528;28;20028;-72
2021/04/28 10:46:26;;;;;;;10.20;5.55;;;14.00;34.10;;;;;;5072897;28;20364;-73
2021/04/28 10:48:52;;;;;;;8.52;5.22;;;14.10;34.20;;;;;;5072604;28;20034;-72
2021/04/28 10:51:35;;;;;;;7.25;5.53;;;14.00;34.10;;;;;;5072555;28;20127;-73
2021/04/28 10:54:24;;;;;;;6.63;4.93;;;14.00;33.70;;;;;;5071314;28;20024;-72
2021/04/28 10:57:03;;;;;;;8.30;4.65;;;14.30;34.00;;;;;;5072812;28;20021;-71
2021/04/28 10:59:41;;;;;;;6.53;4.80;;;14.40;33.40;;;;;;5072356;28;20075;-72
2021/04/28 11:02:12;;;;;;;14.95;6.03;;;14.50;33.90;;;;;;5071270;28;20024;-73
2021/04/28 11:04:38;;;;;;;9.43;5.13;;;14.50;32.80;;;;;;5071424;28;20202;-73
2021/04/28 11:07:04;;;;;;;8.63;5.45;;;14.60;33.00;;;;;;5072330;28;20030;-73
2021/04/28 11:09:30;;;;;;;8.43;5.95;;;14.60;33.30;;;;;;5072315;28;20482;-73
2021/04/28 11:11:59;;;;;;;8.23;5.13;;;14.60;33.40;;;;;;5071455;28;20021;-73
2021/04/28 11:14:29;;;;;;;7.10;5.28;;;14.50;32.90;;;;;;5071259;28;20021;-72
2021/04/28 11:16:59;;;;;;;10.75;5.60;;;14.50;33.20;;;;;;5072318;28;20116;-73
2021/04/28 11:19:36;;;;;;;8.50;5.30;;;14.40;32.80;;;;;;5071196;28;20039;-72
2021/04/28 11:22:21;;;;;;;7.55;5.25;;;14.40;33.10;;;;;;5071065;28;20070;-73
2021/04/28 11:25:00;;;;;;;8.38;5.53;;;14.60;33.60;;;;;;5072312;28;20021;-73
2021/04/28 11:27:41;;;;;;;8.27;5.05;;;14.80;33.70;;;;;;5072054;28;20020;-73
2021/04/28 11:30:36;;;;;;;7.10;4.60;;;14.90;33.70;;;;;;5071037;28;20040;-73
2021/04/28 11:33:25;;;;;;;6.50;5.15;;;15.10;33.40;;;;;;5072300;28;20032;-73
2021/04/28 11:35:53;;;;;;;13.20;6.13;;;15.00;33.20;;;;;;5071120;28;20082;-73
2021/04/28 11:38:22;;;;;;;9.43;5.70;;;15.30;33.20;;;;;;5072256;28;20390;-73
2021/04/28 11:40:49;;;;;;;8.45;4.88;;;15.30;32.50;;;;;;5071751;28;20048;-74
2021/04/28 11:43:17;;;;;;;7.35;4.88;;;15.30;33.00;;;;;;5067381;28;20041;-74
2021/04/28 11:45:43;;;;;;;9.35;5.43;;;15.40;33.10;;;;;;5052014;28;20115;-73
2021/04/28 11:48:16;;;;;;;6.07;4.22;;;15.40;32.60;;;;;;5052024;28;20103;-73
2021/04/28 11:50:53;;;;;;;6.72;4.60;;;15.60;33.20;;;;;;5051989;28;20121;-73
2021/04/28 11:53:20;;;;;;;6.97;4.97;;;15.60;32.30;;;;;;5052518;28;20071;-74
2021/04/28 11:55:46;;;;;;;8.07;5.43;;;15.50;31.40;;;;;;5051764;28;20021;-73
2021/04/28 11:58:39;;;;;;;11.82;5.25;;;15.60;31.90;;;;;;5050579;28;20098;-74
2021/04/28 12:01:12;;;;;;;8.50;5.05;;;15.50;32.10;;;;;;5049162;28;20041;-74
2021/04/28 12:03:54;;;;;;;6.38;4.70;;;15.50;32.10;;;;;;5051942;28;20029;-74
2021/04/28 12:06:26;;;;;;;5.28;4.28;;;15.50;31.30;;;;;;5050694;28;20013;-74
2021/04/28 12:09:07;;;;;;;6.70;6.05;;;15.50;31.20;;;;;;5052096;28;20390;-74
2021/04/28 12:11:34;;;;;;;7.07;5.00;;;15.50;31.30;;;;;;5051599;28;20390;-74
2021/04/28 12:14:00;;;;;;;6.82;4.78;;;15.60;31.10;;;;;;5051716;28;20075;-74
2021/04/28 12:16:26;;;;;;;8.25;5.45;;;15.60;30.60;;;;;;5051890;28;20029;-74
2021/04/28 12:19:09;;;;;;;14.07;5.15;;;15.60;30.70;;;;;;5051617;28;20055;-75
2021/04/28 12:21:35;;;;;;;6.63;4.45;;;15.80;32.10;;;;;;5051333;28;20065;-74
2021/04/28 12:24:00;;;;;;;13.70;5.25;;;15.70;31.80;;;;;;5054156;28;20064;-75
2021/04/28 12:26:26;;;;;;;6.45;5.03;;;15.60;31.80;;;;;;5055202;28;20039;-74
2021/04/28 12:28:52;;;;;;;10.52;5.22;;;15.60;32.30;;;;;;5055235;28;20068;-73
2021/04/28 12:31:44;;;;;;;5.82;4.40;;;15.70;32.20;;;;;;5055374;28;20031;-73
2021/04/28 12:34:16;;;;;;;10.20;4.53;;;15.70;32.60;;;;;;5055289;28;20462;-73
2021/04/28 12:36:42;;;;;;;;;;;15.80;32.30;;;;;;5054489;28;20032;-73
2021/04/28 12:39:08;;;;;;;8.02;4.72;;;15.80;32.10;;;;;;5055340;28;20324;-72
2021/04/28 12:41:33;;;;;;;9.10;4.90;;;16.20;33.10;;;;;;5054849;28;20044;-75
2021/04/28 12:43:59;;;;;;;9.05;5.40;;;16.10;32.30;;;;;;5055260;28;20028;-74
2021/04/28 12:46:29;;;;;;;5.80;4.18;;;16.20;31.40;;;;;;5055145;28;20028;-74